sensor_id;sensor_type;location;lat;lon;timestamp;pressure;altitude;pressure_sealevel;temperature;humidity
16690;BME280;8458;52.220;9.884;2022-07-18T00:02:08;101726.75;;;19.07;56.15
16690;BME280;8458;52.220;9.884;2022-07-18T00:04:35;101733.75;;;19.09;56.04
16690;BME280;8458;52.220;9.884;2022-07-18T00:07:01;101728.13;;;19.09;55.81
16690;BME280;8458;52.220;9.884;2022-07-18T00:09:28;101739.69;;;19.08;55.74
16690;BME280;8458;52.220;9.884;2022-07-18T00:11:55;101740.56;;;19.03;55.88
16690;BME280;8458;52.220;9.884;2022-07-18T00:14:23;101749.59;;;19.00;55.84
16690;BME280;8458;52.220;9.884;2022-07-18T00:16:49;101749.59;;;19.00;55.44
16690;BME280;8458;52.220;9.884;2022-07-18T00:19:16;101741.16;;;19.00;54.97
16690;BME280;8458;52.220;9.884;2022-07-18T00:21:43;101748.84;;;18.89;55.04
16690;BME280;8458;52.220;9.884;2022-07-18T00:24:10;101743.53;;;18.88;54.83
16690;BME280;8458;52.220;9.884;2022-07-18T00:26:36;101739.59;;;18.84;54.57
16690;BME280;8458;52.220;9.884;2022-07-18T00:29:03;101742.25;;;18.70;54.63
16690;BME280;8458;52.220;9.884;2022-07-18T00:31:31;101738.69;;;18.59;55.32
16690;BME280;8458;52.220;9.884;2022-07-18T00:33:57;101734.75;;;18.60;55.68
16690;BME280;8458;52.220;9.884;2022-07-18T00:36:24;101741.50;;;18.59;55.60
16690;BME280;8458;52.220;9.884;2022-07-18T00:38:50;101738.19;;;18.52;55.93
16690;BME280;8458;52.220;9.884;2022-07-18T00:41:17;101735.69;;;18.50;56.22
16690;BME280;8458;52.220;9.884;2022-07-18T00:43:43;101731.06;;;18.30;55.71
16690;BME280;8458;52.220;9.884;2022-07-18T00:46:10;101731.41;;;18.18;55.91
16690;BME280;8458;52.220;9.884;2022-07-18T00:48:38;101726.44;;;18.10;56.60
16690;BME280;8458;52.220;9.884;2022-07-18T00:51:05;101730.63;;;18.13;56.73
16690;BME280;8458;52.220;9.884;2022-07-18T00:53:32;101744.09;;;18.10;56.78
16690;BME280;8458;52.220;9.884;2022-07-18T00:55:59;101742.44;;;18.09;57.47
16690;BME280;8458;52.220;9.884;2022-07-18T00:58:25;101736.25;;;18.13;57.99
16690;BME280;8458;52.220;9.884;2022-07-18T01:00:52;101728.94;;;18.12;58.16
16690;BME280;8458;52.220;9.884;2022-07-18T01:03:36;101732.34;;;18.08;58.57
16690;BME280;8458;52.220;9.884;2022-07-18T01:06:04;101733.50;;;18.02;58.11
16690;BME280;8458;52.220;9.884;2022-07-18T01:08:31;101731.59;;;17.92;57.91
16690;BME280;8458;52.220;9.884;2022-07-18T01:10:58;101734.13;;;17.94;58.29
16690;BME280;8458;52.220;9.884;2022-07-18T01:13:24;101727.13;;;17.86;58.74
16690;BME280;8458;52.220;9.884;2022-07-18T01:15:51;101730.22;;;17.85;59.40
16690;BME280;8458;52.220;9.884;2022-07-18T01:18:17;101726.25;;;17.86;59.46
16690;BME280;8458;52.220;9.884;2022-07-18T01:20:45;101728.53;;;17.84;59.35
16690;BME280;8458;52.220;9.884;2022-07-18T01:23:12;101719.59;;;17.71;60.01
16690;BME280;8458;52.220;9.884;2022-07-18T01:25:38;101721.84;;;17.74;60.15
16690;BME280;8458;52.220;9.884;2022-07-18T01:28:05;101724.31;;;17.81;60.07
16690;BME280;8458;52.220;9.884;2022-07-18T01:30:31;101719.00;;;17.85;59.96
16690;BME280;8458;52.220;9.884;2022-07-18T01:33:00;101720.09;;;17.84;60.17
16690;BME280;8458;52.220;9.884;2022-07-18T01:35:28;101720.16;;;17.79;60.28
16690;BME280;8458;52.220;9.884;2022-07-18T01:37:58;101717.06;;;17.80;60.28
16690;BME280;8458;52.220;9.884;2022-07-18T01:40:26;101712.56;;;17.79;60.50
16690;BME280;8458;52.220;9.884;2022-07-18T01:42:53;101716.19;;;17.80;60.35
16690;BME280;8458;52.220;9.884;2022-07-18T01:45:20;101707.81;;;17.74;60.58
16690;BME280;8458;52.220;9.884;2022-07-18T01:47:47;101706.44;;;17.67;60.09
16690;BME280;8458;52.220;9.884;2022-07-18T01:50:15;101711.81;;;17.63;60.58
16690;BME280;8458;52.220;9.884;2022-07-18T01:52:41;101709.53;;;17.65;60.03
16690;BME280;8458;52.220;9.884;2022-07-18T01:55:10;101713.47;;;17.64;59.84
16690;BME280;8458;52.220;9.884;2022-07-18T01:57:37;101707.34;;;17.57;60.49
16690;BME280;8458;52.220;9.884;2022-07-18T02:00:05;101709.56;;;17.55;60.42
16690;BME280;8458;52.220;9.884;2022-07-18T02:02:32;101706.22;;;17.53;60.52
16690;BME280;8458;52.220;9.884;2022-07-18T02:04:59;101701.78;;;17.47;60.75
16690;BME280;8458;52.220;9.884;2022-07-18T02:07:25;101706.84;;;17.39;60.67
16690;BME280;8458;52.220;9.884;2022-07-18T02:09:52;101700.66;;;17.43;60.75
16690;BME280;8458;52.220;9.884;2022-07-18T02:12:20;101702.09;;;17.40;61.13
16690;BME280;8458;52.220;9.884;2022-07-18T02:14:47;101704.03;;;17.39;61.43
16690;BME280;8458;52.220;9.884;2022-07-18T02:17:14;101692.84;;;17.34;61.62
16690;BME280;8458;52.220;9.884;2022-07-18T02:19:40;101693.41;;;17.36;61.49
16690;BME280;8458;52.220;9.884;2022-07-18T02:22:07;101692.03;;;17.34;61.64
16690;BME280;8458;52.220;9.884;2022-07-18T02:24:34;101695.13;;;17.32;61.76
16690;BME280;8458;52.220;9.884;2022-07-18T02:27:00;101693.44;;;17.31;61.30
16690;BME280;8458;52.220;9.884;2022-07-18T02:29:28;101687.81;;;17.31;60.88
16690;BME280;8458;52.220;9.884;2022-07-18T02:31:55;101695.41;;;17.26;61.05
16690;BME280;8458;52.220;9.884;2022-07-18T02:34:21;101694.28;;;17.27;61.18
16690;BME280;8458;52.220;9.884;2022-07-18T02:36:48;101685.63;;;17.23;61.61
16690;BME280;8458;52.220;9.884;2022-07-18T02:39:16;101681.97;;;17.17;61.40
16690;BME280;8458;52.220;9.884;2022-07-18T02:41:43;101675.25;;;17.13;61.58
16690;BME280;8458;52.220;9.884;2022-07-18T02:44:10;101676.13;;;17.14;62.01
16690;BME280;8458;52.220;9.884;2022-07-18T02:46:38;101689.28;;;17.08;62.17
16690;BME280;8458;52.220;9.884;2022-07-18T02:49:04;101688.47;;;17.08;61.93
16690;BME280;8458;52.220;9.884;2022-07-18T02:51:31;101685.69;;;17.02;62.20
16690;BME280;8458;52.220;9.884;2022-07-18T02:53:57;101680.09;;;17.02;62.31
16690;BME280;8458;52.220;9.884;2022-07-18T02:56:24;101673.69;;;16.92;62.42
16690;BME280;8458;52.220;9.884;2022-07-18T02:58:50;101672.25;;;16.84;62.16
16690;BME280;8458;52.220;9.884;2022-07-18T03:01:17;101677.31;;;16.72;62.19
16690;BME280;8458;52.220;9.884;2022-07-18T03:03:45;101673.97;;;16.64;63.00
16690;BME280;8458;52.220;9.884;2022-07-18T03:06:12;101680.09;;;16.66;62.90
16690;BME280;8458;52.220;9.884;2022-07-18T03:08:38;101669.47;;;16.69;63.04
16690;BME280;8458;52.220;9.884;2022-07-18T03:11:05;101669.47;;;16.69;63.10
16690;BME280;8458;52.220;9.884;2022-07-18T03:13:31;101659.41;;;16.67;63.17
16690;BME280;8458;52.220;9.884;2022-07-18T03:15:58;101663.88;;;16.69;63.37
16690;BME280;8458;52.220;9.884;2022-07-18T03:18:24;101660.50;;;16.66;63.44
16690;BME280;8458;52.220;9.884;2022-07-18T03:20:52;101659.69;;;16.66;63.67
16690;BME280;8458;52.220;9.884;2022-07-18T03:23:19;101665.53;;;16.70;63.43
16690;BME280;8458;52.220;9.884;2022-07-18T03:25:46;101666.09;;;16.66;63.43
16690;BME280;8458;52.220;9.884;2022-07-18T03:28:12;101660.50;;;16.66;63.60
16690;BME280;8458;52.220;9.884;2022-07-18T03:30:39;101662.75;;;16.64;63.57
16690;BME280;8458;52.220;9.884;2022-07-18T03:33:05;101667.53;;;16.64;63.54
16690;BME280;8458;52.220;9.884;2022-07-18T03:35:32;101667.22;;;16.71;63.38
16690;BME280;8458;52.220;9.884;2022-07-18T03:38:00;101663.59;;;16.65;63.59
16690;BME280;8458;52.220;9.884;2022-07-18T03:40:26;101671.44;;;16.63;63.36
16690;BME280;8458;52.220;9.884;2022-07-18T03:42:53;101667.25;;;16.55;63.25
16690;BME280;8458;52.220;9.884;2022-07-18T03:45:19;101665.28;;;16.56;63.14
16690;BME280;8458;52.220;9.884;2022-07-18T03:47:46;101667.25;;;16.50;63.32
16690;BME280;8458;52.220;9.884;2022-07-18T03:50:12;101666.69;;;16.53;63.10
16690;BME280;8458;52.220;9.884;2022-07-18T03:52:39;101668.63;;;16.53;63.07
16690;BME280;8458;52.220;9.884;2022-07-18T03:55:07;101664.19;;;16.52;63.32
16690;BME280;8458;52.220;9.884;2022-07-18T03:57:34;101660.25;;;16.53;63.04
16690;BME280;8458;52.220;9.884;2022-07-18T04:00:01;101655.50;;;16.53;62.94
16690;BME280;8458;52.220;9.884;2022-07-18T04:02:27;101659.69;;;16.56;62.66
16690;BME280;8458;52.220;9.884;2022-07-18T04:04:54;101658.28;;;16.58;62.55
16690;BME280;8458;52.220;9.884;2022-07-18T04:07:21;101654.94;;;16.56;62.88
16690;BME280;8458;52.220;9.884;2022-07-18T04:09:47;101655.50;;;16.48;63.17
16690;BME280;8458;52.220;9.884;2022-07-18T04:12:15;101656.06;;;16.45;63.08
16690;BME280;8458;52.220;9.884;2022-07-18T04:14:41;101652.41;;;16.44;63.02
16690;BME280;8458;52.220;9.884;2022-07-18T04:17:08;101651.59;;;16.44;63.07
16690;BME280;8458;52.220;9.884;2022-07-18T04:19:34;101656.34;;;16.43;63.40
16690;BME280;8458;52.220;9.884;2022-07-18T04:22:01;101651.59;;;16.44;63.48
16690;BME280;8458;52.220;9.884;2022-07-18T04:24:27;101654.94;;;16.46;63.78
16690;BME280;8458;52.220;9.884;2022-07-18T04:26:54;101649.91;;;16.43;63.54
16690;BME280;8458;52.220;9.884;2022-07-18T04:29:22;101649.06;;;16.47;63.25
16690;BME280;8458;52.220;9.884;2022-07-18T04:31:49;101649.34;;;16.46;63.47
16690;BME280;8458;52.220;9.884;2022-07-18T04:34:15;101645.44;;;16.47;63.50
16690;BME280;8458;52.220;9.884;2022-07-18T04:36:42;101641.78;;;16.52;63.51
16690;BME280;8458;52.220;9.884;2022-07-18T04:39:09;101636.44;;;16.55;63.46
16690;BME280;8458;52.220;9.884;2022-07-18T04:41:35;101631.97;;;16.49;63.91
16690;BME280;8458;52.220;9.884;2022-07-18T04:44:02;101626.66;;;16.53;64.39
16690;BME280;8458;52.220;9.884;2022-07-18T04:46:30;101635.03;;;16.53;64.86
16690;BME280;8458;52.220;9.884;2022-07-18T04:48:56;101635.34;;;16.56;64.87
16690;BME280;8458;52.220;9.884;2022-07-18T04:51:23;101635.06;;;16.58;64.49
16690;BME280;8458;52.220;9.884;2022-07-18T04:53:49;101641.50;;;16.58;64.32
16690;BME280;8458;52.220;9.884;2022-07-18T04:56:16;101639.50;;;16.59;64.16
16690;BME280;8458;52.220;9.884;2022-07-18T04:58:42;101647.06;;;16.63;63.99
16690;BME280;8458;52.220;9.884;2022-07-18T05:01:09;101635.59;;;16.65;64.09
16690;BME280;8458;52.220;9.884;2022-07-18T05:03:37;101640.91;;;16.72;64.13
16690;BME280;8458;52.220;9.884;2022-07-18T05:06:03;101631.38;;;16.73;64.36
16690;BME280;8458;52.220;9.884;2022-07-18T05:08:30;101630.25;;;16.74;64.63
16690;BME280;8458;52.220;9.884;2022-07-18T05:10:56;101627.44;;;16.79;65.02
16690;BME280;8458;52.220;9.884;2022-07-18T05:13:23;101635.84;;;16.84;64.96
16690;BME280;8458;52.220;9.884;2022-07-18T05:15:50;101634.69;;;16.85;65.18
16690;BME280;8458;52.220;9.884;2022-07-18T05:18:16;101637.53;;;16.90;65.29
16690;BME280;8458;52.220;9.884;2022-07-18T05:20:44;101645.38;;;16.93;64.99
16690;BME280;8458;52.220;9.884;2022-07-18T05:23:13;101645.91;;;16.95;65.03
16690;BME280;8458;52.220;9.884;2022-07-18T05:25:42;101641.97;;;17.01;65.31
16690;BME280;8458;52.220;9.884;2022-07-18T05:28:08;101636.34;;;17.07;65.25
16690;BME280;8458;52.220;9.884;2022-07-18T05:30:35;101643.59;;;17.13;64.94
16690;BME280;8458;52.220;9.884;2022-07-18T05:33:02;101641.91;;;17.17;65.07
16690;BME280;8458;52.220;9.884;2022-07-18T05:35:28;101631.78;;;17.21;65.57
16690;BME280;8458;52.220;9.884;2022-07-18T05:37:56;101617.78;;;17.26;65.16
16690;BME280;8458;52.220;9.884;2022-07-18T05:40:23;101626.69;;;17.33;65.30
16690;BME280;8458;52.220;9.884;2022-07-18T05:42:49;101624.81;;;17.18;65.69
16690;BME280;8458;52.220;9.884;2022-07-18T05:45:16;101638.25;;;17.22;66.01
16690;BME280;8458;52.220;9.884;2022-07-18T05:47:43;101630.66;;;17.27;65.71
16690;BME280;8458;52.220;9.884;2022-07-18T05:50:09;101628.91;;;17.36;65.38
16690;BME280;8458;52.220;9.884;2022-07-18T05:52:36;101625.53;;;17.45;65.62
16690;BME280;8458;52.220;9.884;2022-07-18T05:55:06;101626.31;;;17.55;65.76
16690;BME280;8458;52.220;9.884;2022-07-18T05:57:34;101638.03;;;17.63;65.16
16690;BME280;8458;52.220;9.884;2022-07-18T06:00:03;101638.56;;;17.70;64.88
16690;BME280;8458;52.220;9.884;2022-07-18T06:02:30;101640.50;;;17.74;64.52
16690;BME280;8458;52.220;9.884;2022-07-18T06:04:57;101645.78;;;17.81;64.45
16690;BME280;8458;52.220;9.884;2022-07-18T06:07:24;101639.84;;;17.88;63.66
16690;BME280;8458;52.220;9.884;2022-07-18T06:09:51;101627.50;;;17.94;62.72
16690;BME280;8458;52.220;9.884;2022-07-18T06:12:19;101626.56;;;18.04;63.08
16690;BME280;8458;52.220;9.884;2022-07-18T06:14:46;101625.66;;;18.14;63.85
16690;BME280;8458;52.220;9.884;2022-07-18T06:17:13;101620.78;;;18.24;63.38
16690;BME280;8458;52.220;9.884;2022-07-18T06:19:39;101622.09;;;18.37;61.84
16690;BME280;8458;52.220;9.884;2022-07-18T06:22:07;101621.69;;;18.49;60.28
16690;BME280;8458;52.220;9.884;2022-07-18T06:24:34;101621.88;;;18.58;59.75
16690;BME280;8458;52.220;9.884;2022-07-18T06:27:01;101612.81;;;18.66;60.22
16690;BME280;8458;52.220;9.884;2022-07-18T06:29:29;101611.53;;;18.77;60.37
16690;BME280;8458;52.220;9.884;2022-07-18T06:31:55;101606.34;;;18.95;59.76
16690;BME280;8458;52.220;9.884;2022-07-18T06:34:22;101595.81;;;19.06;58.28
16690;BME280;8458;52.220;9.884;2022-07-18T06:36:48;101602.66;;;19.19;56.77
16690;BME280;8458;52.220;9.884;2022-07-18T06:39:15;101599.72;;;19.29;56.71
16690;BME280;8458;52.220;9.884;2022-07-18T06:41:44;101599.13;;;19.32;56.78
16690;BME280;8458;52.220;9.884;2022-07-18T06:44:11;101593.34;;;19.42;57.57
16690;BME280;8458;52.220;9.884;2022-07-18T06:46:39;101605.56;;;19.51;56.07
16690;BME280;8458;52.220;9.884;2022-07-18T06:49:05;101596.53;;;19.55;56.26
16690;BME280;8458;52.220;9.884;2022-07-18T06:51:32;101594.09;;;19.67;57.50
16690;BME280;8458;52.220;9.884;2022-07-18T06:53:59;101586.66;;;19.76;56.82
16690;BME280;8458;52.220;9.884;2022-07-18T06:56:26;101596.09;;;19.85;56.17
16690;BME280;8458;52.220;9.884;2022-07-18T06:58:53;101601.63;;;19.91;56.00
16690;BME280;8458;52.220;9.884;2022-07-18T07:01:20;101596.97;;;20.00;54.73
16690;BME280;8458;52.220;9.884;2022-07-18T07:03:48;101595.69;;;20.11;55.15
16690;BME280;8458;52.220;9.884;2022-07-18T07:06:14;101594.97;;;20.19;54.93
16690;BME280;8458;52.220;9.884;2022-07-18T07:08:42;101593.63;;;20.31;54.10
16690;BME280;8458;52.220;9.884;2022-07-18T07:11:08;101591.25;;;20.38;53.22
16690;BME280;8458;52.220;9.884;2022-07-18T07:13:35;101590.22;;;20.48;51.55
16690;BME280;8458;52.220;9.884;2022-07-18T07:16:02;101582.53;;;20.53;52.99
16690;BME280;8458;52.220;9.884;2022-07-18T07:18:29;101581.75;;;20.67;53.52
16690;BME280;8458;52.220;9.884;2022-07-18T07:20:58;101582.59;;;20.81;50.45
16690;BME280;8458;52.220;9.884;2022-07-18T07:23:24;101576.63;;;20.97;49.86
16690;BME280;8458;52.220;9.884;2022-07-18T07:25:51;101570.25;;;21.05;50.32
16690;BME280;8458;52.220;9.884;2022-07-18T07:28:17;101576.00;;;21.13;49.36
16690;BME280;8458;52.220;9.884;2022-07-18T07:30:44;101575.25;;;21.22;50.23
16690;BME280;8458;52.220;9.884;2022-07-18T07:33:11;101566.25;;;21.34;49.27
16690;BME280;8458;52.220;9.884;2022-07-18T07:35:37;101564.84;;;21.45;49.48
16690;BME280;8458;52.220;9.884;2022-07-18T07:38:05;101570.94;;;21.52;49.25
16690;BME280;8458;52.220;9.884;2022-07-18T07:40:32;101562.00;;;21.59;49.29
16690;BME280;8458;52.220;9.884;2022-07-18T07:43:06;101567.03;;;21.62;49.69
16690;BME280;8458;52.220;9.884;2022-07-18T07:45:33;101562.59;;;21.70;50.21
16690;BME280;8458;52.220;9.884;2022-07-18T07:48:00;101569.16;;;21.79;49.47
16690;BME280;8458;52.220;9.884;2022-07-18T07:50:27;101572.94;;;21.97;48.57
16690;BME280;8458;52.220;9.884;2022-07-18T07:52:53;101573.53;;;22.08;48.43
16690;BME280;8458;52.220;9.884;2022-07-18T07:55:21;101573.44;;;22.22;48.21
16690;BME280;8458;52.220;9.884;2022-07-18T07:57:48;101571.72;;;22.34;48.55
16690;BME280;8458;52.220;9.884;2022-07-18T08:00:15;101569.25;;;22.42;47.56
16690;BME280;8458;52.220;9.884;2022-07-18T08:02:52;101564.84;;;22.58;47.75
16690;BME280;8458;52.220;9.884;2022-07-18T08:05:18;101561.97;;;22.81;46.93
16690;BME280;8458;52.220;9.884;2022-07-18T08:07:45;101561.34;;;23.01;46.37
16690;BME280;8458;52.220;9.884;2022-07-18T08:10:11;101562.25;;;23.19;46.62
16690;BME280;8458;52.220;9.884;2022-07-18T08:12:39;101563.75;;;23.34;47.47
16690;BME280;8458;52.220;9.884;2022-07-18T08:15:07;101557.63;;;23.50;45.68
16690;BME280;8458;52.220;9.884;2022-07-18T08:17:34;101556.47;;;23.68;46.39
16690;BME280;8458;52.220;9.884;2022-07-18T08:20:00;101541.78;;;23.84;45.14
16690;BME280;8458;52.220;9.884;2022-07-18T08:22:27;101542.97;;;23.91;44.45
16690;BME280;8458;52.220;9.884;2022-07-18T08:24:53;101547.13;;;24.11;43.47
16690;BME280;8458;52.220;9.884;2022-07-18T08:27:20;101542.94;;;24.17;43.12
16690;BME280;8458;52.220;9.884;2022-07-18T08:29:48;101541.38;;;24.29;42.81
16690;BME280;8458;52.220;9.884;2022-07-18T08:32:14;101540.22;;;24.39;43.18
16690;BME280;8458;52.220;9.884;2022-07-18T08:34:41;101541.16;;;24.60;42.39
16690;BME280;8458;52.220;9.884;2022-07-18T08:37:07;101539.41;;;24.77;41.59
16690;BME280;8458;52.220;9.884;2022-07-18T08:39:34;101542.84;;;24.91;40.62
16690;BME280;8458;52.220;9.884;2022-07-18T08:42:01;101545.22;;;25.10;41.61
16690;BME280;8458;52.220;9.884;2022-07-18T08:44:28;101550.97;;;25.22;39.97
16690;BME280;8458;52.220;9.884;2022-07-18T08:46:57;101541.72;;;25.34;40.85
16690;BME280;8458;52.220;9.884;2022-07-18T08:49:27;101530.66;;;25.63;40.74
16690;BME280;8458;52.220;9.884;2022-07-18T08:51:54;101520.09;;;25.84;39.65
16690;BME280;8458;52.220;9.884;2022-07-18T08:54:20;101522.31;;;26.00;38.88
16690;BME280;8458;52.220;9.884;2022-07-18T08:56:47;101529.25;;;26.23;39.39
16690;BME280;8458;52.220;9.884;2022-07-18T08:59:13;101530.34;;;26.43;39.01
16690;BME280;8458;52.220;9.884;2022-07-18T09:01:40;101523.38;;;26.65;37.84
16690;BME280;8458;52.220;9.884;2022-07-18T09:04:08;101529.78;;;26.75;36.58
16690;BME280;8458;52.220;9.884;2022-07-18T09:06:43;101530.25;;;26.77;35.39
16690;BME280;8458;52.220;9.884;2022-07-18T09:09:11;101530.97;;;26.74;35.68
16690;BME280;8458;52.220;9.884;2022-07-18T09:11:49;101534.88;;;26.81;35.39
16690;BME280;8458;52.220;9.884;2022-07-18T09:14:31;101536.09;;;26.80;35.32
16690;BME280;8458;52.220;9.884;2022-07-18T09:17:07;101541.53;;;26.86;34.31
16690;BME280;8458;52.220;9.884;2022-07-18T09:19:36;101535.47;;;26.99;34.85
16690;BME280;8458;52.220;9.884;2022-07-18T09:22:17;101530.72;;;27.16;34.53
16690;BME280;8458;52.220;9.884;2022-07-18T09:24:56;101528.56;;;27.38;34.32
16690;BME280;8458;52.220;9.884;2022-07-18T09:27:35;101526.09;;;27.64;34.34
16690;BME280;8458;52.220;9.884;2022-07-18T09:30:26;101526.97;;;27.81;33.75
16690;BME280;8458;52.220;9.884;2022-07-18T09:33:05;101521.91;;;28.02;34.01
16690;BME280;8458;52.220;9.884;2022-07-18T09:35:38;101521.22;;;28.21;33.27
16690;BME280;8458;52.220;9.884;2022-07-18T09:38:09;101519.09;;;28.34;32.13
16690;BME280;8458;52.220;9.884;2022-07-18T09:40:38;101521.56;;;28.52;32.38
16690;BME280;8458;52.220;9.884;2022-07-18T09:43:06;101520.19;;;28.46;31.25
16690;BME280;8458;52.220;9.884;2022-07-18T09:45:34;101512.59;;;28.66;32.12
16690;BME280;8458;52.220;9.884;2022-07-18T09:48:03;101495.34;;;28.78;30.88
16690;BME280;8458;52.220;9.884;2022-07-18T09:50:35;101499.22;;;28.86;31.32
16690;BME280;8458;52.220;9.884;2022-07-18T09:53:11;101499.38;;;28.93;32.19
16690;BME280;8458;52.220;9.884;2022-07-18T09:55:42;101506.09;;;29.01;32.32
16690;BME280;8458;52.220;9.884;2022-07-18T09:58:09;101504.50;;;29.03;32.16
16690;BME280;8458;52.220;9.884;2022-07-18T10:00:38;101499.41;;;29.28;32.46
16690;BME280;8458;52.220;9.884;2022-07-18T10:03:06;101503.09;;;29.48;31.97
16690;BME280;8458;52.220;9.884;2022-07-18T10:05:36;101491.06;;;29.78;30.62
16690;BME280;8458;52.220;9.884;2022-07-18T10:08:05;101487.63;;;29.89;31.49
16690;BME280;8458;52.220;9.884;2022-07-18T10:10:32;101486.09;;;29.95;30.34
16690;BME280;8458;52.220;9.884;2022-07-18T10:13:00;101482.91;;;30.00;30.36
16690;BME280;8458;52.220;9.884;2022-07-18T10:15:28;101477.47;;;30.14;30.25
16690;BME280;8458;52.220;9.884;2022-07-18T10:17:55;101476.44;;;30.03;29.43
16690;BME280;8458;52.220;9.884;2022-07-18T10:20:27;101477.16;;;29.96;30.29
16690;BME280;8458;52.220;9.884;2022-07-18T10:23:00;101471.16;;;30.05;30.26
16690;BME280;8458;52.220;9.884;2022-07-18T10:25:28;101471.44;;;29.96;30.31
16690;BME280;8458;52.220;9.884;2022-07-18T10:28:03;101477.97;;;29.97;30.05
16690;BME280;8458;52.220;9.884;2022-07-18T10:30:36;101478.53;;;30.06;30.00
16690;BME280;8458;52.220;9.884;2022-07-18T10:33:04;101476.78;;;30.21;29.89
16690;BME280;8458;52.220;9.884;2022-07-18T10:36:02;101468.34;;;30.32;29.73
16690;BME280;8458;52.220;9.884;2022-07-18T10:38:31;101465.66;;;30.39;30.09
16690;BME280;8458;52.220;9.884;2022-07-18T10:41:09;101464.47;;;30.67;29.41
16690;BME280;8458;52.220;9.884;2022-07-18T10:43:39;101458.09;;;30.77;29.59
16690;BME280;8458;52.220;9.884;2022-07-18T10:46:07;101445.38;;;30.74;28.91
16690;BME280;8458;52.220;9.884;2022-07-18T10:48:54;101452.72;;;30.99;29.31
16690;BME280;8458;52.220;9.884;2022-07-18T10:51:32;101454.25;;;30.92;28.71
16690;BME280;8458;52.220;9.884;2022-07-18T10:54:10;101453.97;;;31.01;28.68
16690;BME280;8458;52.220;9.884;2022-07-18T10:57:06;101462.66;;;31.08;29.10
16690;BME280;8458;52.220;9.884;2022-07-18T10:59:34;101465.31;;;31.24;28.85
16690;BME280;8458;52.220;9.884;2022-07-18T11:02:04;101452.38;;;31.04;27.85
16690;BME280;8458;52.220;9.884;2022-07-18T11:04:34;101452.66;;;31.25;28.45
16690;BME280;8458;52.220;9.884;2022-07-18T11:07:04;101454.72;;;31.25;28.19
16690;BME280;8458;52.220;9.884;2022-07-18T11:09:37;101449.91;;;31.33;28.55
16690;BME280;8458;52.220;9.884;2022-07-18T11:12:34;101455.00;;;31.50;27.57
16690;BME280;8458;52.220;9.884;2022-07-18T11:15:06;101445.22;;;31.51;28.23
16690;BME280;8458;52.220;9.884;2022-07-18T11:18:00;101431.88;;;31.66;28.04
16690;BME280;8458;52.220;9.884;2022-07-18T11:20:36;101430.00;;;31.81;27.90
16690;BME280;8458;52.220;9.884;2022-07-18T11:23:04;101426.06;;;31.96;27.80
16690;BME280;8458;52.220;9.884;2022-07-18T11:25:32;101421.16;;;32.00;27.91
16690;BME280;8458;52.220;9.884;2022-07-18T11:27:59;101416.16;;;31.90;27.54
16690;BME280;8458;52.220;9.884;2022-07-18T11:30:26;101412.94;;;31.95;26.99
16690;BME280;8458;52.220;9.884;2022-07-18T11:32:52;101408.91;;;32.04;27.58
16690;BME280;8458;52.220;9.884;2022-07-18T11:35:23;101418.81;;;32.10;27.32
16690;BME280;8458;52.220;9.884;2022-07-18T11:37:52;101413.94;;;32.14;27.08
16690;BME280;8458;52.220;9.884;2022-07-18T11:40:19;101410.66;;;32.12;27.39
16690;BME280;8458;52.220;9.884;2022-07-18T11:42:47;101411.16;;;32.21;27.74
16690;BME280;8458;52.220;9.884;2022-07-18T11:45:15;101414.50;;;31.86;28.80
16690;BME280;8458;52.220;9.884;2022-07-18T11:47:46;101402.03;;;31.67;28.52
16690;BME280;8458;52.220;9.884;2022-07-18T11:50:13;101392.44;;;31.93;28.49
16690;BME280;8458;52.220;9.884;2022-07-18T11:52:40;101398.28;;;32.08;28.48
16690;BME280;8458;52.220;9.884;2022-07-18T11:55:07;101403.28;;;32.11;28.35
16690;BME280;8458;52.220;9.884;2022-07-18T11:57:34;101396.03;;;31.83;28.51
16690;BME280;8458;52.220;9.884;2022-07-18T12:00:14;101400.34;;;31.62;27.44
16690;BME280;8458;52.220;9.884;2022-07-18T12:03:06;101390.44;;;31.56;28.33
16690;BME280;8458;52.220;9.884;2022-07-18T12:05:33;101387.69;;;31.67;29.21
16690;BME280;8458;52.220;9.884;2022-07-18T12:08:00;101384.09;;;31.77;28.45
16690;BME280;8458;52.220;9.884;2022-07-18T12:10:27;101377.25;;;31.93;28.11
16690;BME280;8458;52.220;9.884;2022-07-18T12:12:53;101381.06;;;32.04;27.65
16690;BME280;8458;52.220;9.884;2022-07-18T12:15:21;101380.63;;;32.02;27.20
16690;BME280;8458;52.220;9.884;2022-07-18T12:17:48;101382.75;;;32.09;27.41
16690;BME280;8458;52.220;9.884;2022-07-18T12:20:18;101384.56;;;32.28;28.07
16690;BME280;8458;52.220;9.884;2022-07-18T12:23:05;101383.78;;;32.34;26.88
16690;BME280;8458;52.220;9.884;2022-07-18T12:25:38;101382.59;;;32.39;27.29
16690;BME280;8458;52.220;9.884;2022-07-18T12:28:15;101382.56;;;32.35;26.68
16690;BME280;8458;52.220;9.884;2022-07-18T12:30:43;101378.97;;;32.46;26.61
16690;BME280;8458;52.220;9.884;2022-07-18T12:33:11;101375.75;;;32.58;27.20
16690;BME280;8458;52.220;9.884;2022-07-18T12:35:38;101375.84;;;32.69;26.54
16690;BME280;8458;52.220;9.884;2022-07-18T12:38:07;101374.31;;;32.86;26.93
16690;BME280;8458;52.220;9.884;2022-07-18T12:40:42;101377.94;;;32.76;26.97
16690;BME280;8458;52.220;9.884;2022-07-18T12:43:12;101373.03;;;32.80;27.12
16690;BME280;8458;52.220;9.884;2022-07-18T12:45:39;101361.22;;;32.99;27.46
16690;BME280;8458;52.220;9.884;2022-07-18T12:48:10;101368.56;;;32.86;26.47
16690;BME280;8458;52.220;9.884;2022-07-18T12:50:38;101359.16;;;32.89;26.42
16690;BME280;8458;52.220;9.884;2022-07-18T12:53:04;101362.78;;;32.82;26.57
16690;BME280;8458;52.220;9.884;2022-07-18T12:55:31;101350.72;;;32.55;26.52
16690;BME280;8458;52.220;9.884;2022-07-18T12:57:58;101350.47;;;32.82;26.82
16690;BME280;8458;52.220;9.884;2022-07-18T13:00:25;101352.97;;;32.87;25.94
16690;BME280;8458;52.220;9.884;2022-07-18T13:02:51;101339.00;;;32.82;26.28
16690;BME280;8458;52.220;9.884;2022-07-18T13:05:22;101332.53;;;33.14;26.47
16690;BME280;8458;52.220;9.884;2022-07-18T13:07:48;101331.69;;;33.02;26.12